sensor_id;sensor_type;location;lat;lon;timestamp;P1;durP1;ratioP1;P2;durP2;ratioP2
20114;SDS011;10218;42.874;25.320;2023-06-10T00:01:42;8.10;;;4.77;;
20114;SDS011;10218;42.874;25.320;2023-06-10T00:04:10;9.20;;;4.77;;
20114;SDS011;10218;42.874;25.320;2023-06-10T00:06:37;8.43;;;4.50;;
20114;SDS011;10218;42.874;25.320;2023-06-10T00:09:04;8.27;;;4.70;;
20114;SDS011;10218;42.874;25.320;2023-06-10T00:11:32;7.23;;;4.93;;
20114;SDS011;10218;42.874;25.320;2023-06-10T00:13:59;8.27;;;5.03;;
20114;SDS011;10218;42.874;25.320;2023-06-10T00:16:27;10.53;;;5.33;;
20114;SDS011;10218;42.874;25.320;2023-06-10T00:18:54;10.27;;;4.60;;
20114;SDS011;10218;42.874;25.320;2023-06-10T00:21:27;7.43;;;4.83;;
20114;SDS011;10218;42.874;25.320;2023-06-10T00:23:55;7.37;;;4.87;;
20114;SDS011;10218;42.874;25.320;2023-06-10T00:26:22;7.23;;;4.60;;
20114;SDS011;10218;42.874;25.320;2023-06-10T00:28:50;8.17;;;4.87;;
20114;SDS011;10218;42.874;25.320;2023-06-10T00:31:17;6.80;;;4.60;;
20114;SDS011;10218;42.874;25.320;2023-06-10T00:33:45;10.00;;;4.80;;
20114;SDS011;10218;42.874;25.320;2023-06-10T00:36:12;10.47;;;4.63;;
20114;SDS011;10218;42.874;25.320;2023-06-10T00:38:39;8.83;;;4.60;;
20114;SDS011;10218;42.874;25.320;2023-06-10T00:41:09;6.87;;;4.73;;
20114;SDS011;10218;42.874;25.320;2023-06-10T00:43:36;8.07;;;4.73;;
20114;SDS011;10218;42.874;25.320;2023-06-10T00:46:03;7.00;;;4.57;;
20114;SDS011;10218;42.874;25.320;2023-06-10T00:48:30;6.50;;;4.20;;
20114;SDS011;10218;42.874;25.320;2023-06-10T00:50:59;7.43;;;4.40;;
20114;SDS011;10218;42.874;25.320;2023-06-10T00:53:27;13.93;;;4.70;;
20114;SDS011;10218;42.874;25.320;2023-06-10T00:55:55;9.93;;;5.20;;
20114;SDS011;10218;42.874;25.320;2023-06-10T00:58:22;7.53;;;4.67;;
20114;SDS011;10218;42.874;25.320;2023-06-10T01:00:50;10.20;;;4.93;;
20114;SDS011;10218;42.874;25.320;2023-06-10T01:03:18;8.83;;;5.00;;
20114;SDS011;10218;42.874;25.320;2023-06-10T01:06:06;7.03;;;4.93;;
20114;SDS011;10218;42.874;25.320;2023-06-10T01:08:46;7.40;;;4.83;;
20114;SDS011;10218;42.874;25.320;2023-06-10T01:11:24;9.97;;;5.00;;
20114;SDS011;10218;42.874;25.320;2023-06-10T01:13:55;7.23;;;4.77;;
20114;SDS011;10218;42.874;25.320;2023-06-10T01:16:25;7.97;;;4.77;;
20114;SDS011;10218;42.874;25.320;2023-06-10T01:18:52;8.33;;;4.97;;
20114;SDS011;10218;42.874;25.320;2023-06-10T01:21:22;9.63;;;4.90;;
20114;SDS011;10218;42.874;25.320;2023-06-10T01:23:53;7.80;;;4.83;;
20114;SDS011;10218;42.874;25.320;2023-06-10T01:26:24;7.93;;;5.00;;
20114;SDS011;10218;42.874;25.320;2023-06-10T01:28:59;8.83;;;5.00;;
20114;SDS011;10218;42.874;25.320;2023-06-10T01:31:36;10.17;;;4.87;;
20114;SDS011;10218;42.874;25.320;2023-06-10T01:34:10;11.50;;;5.73;;
20114;SDS011;10218;42.874;25.320;2023-06-10T01:36:41;7.17;;;4.83;;
20114;SDS011;10218;42.874;25.320;2023-06-10T01:39:12;7.50;;;5.30;;
20114;SDS011;10218;42.874;25.320;2023-06-10T01:41:42;7.67;;;4.80;;
20114;SDS011;10218;42.874;25.320;2023-06-10T01:44:09;9.73;;;5.03;;
20114;SDS011;10218;42.874;25.320;2023-06-10T01:46:38;8.13;;;5.30;;
20114;SDS011;10218;42.874;25.320;2023-06-10T01:49:06;7.57;;;5.07;;
20114;SDS011;10218;42.874;25.320;2023-06-10T01:51:33;8.13;;;4.80;;
20114;SDS011;10218;42.874;25.320;2023-06-10T01:54:00;11.23;;;5.40;;
20114;SDS011;10218;42.874;25.320;2023-06-10T01:56:27;7.63;;;5.33;;
20114;SDS011;10218;42.874;25.320;2023-06-10T01:58:54;8.27;;;5.10;;
20114;SDS011;10218;42.874;25.320;2023-06-10T02:01:25;8.43;;;4.73;;
20114;SDS011;10218;42.874;25.320;2023-06-10T02:03:53;8.93;;;4.67;;
20114;SDS011;10218;42.874;25.320;2023-06-10T02:06:20;8.10;;;4.77;;
20114;SDS011;10218;42.874;25.320;2023-06-10T02:08:47;7.97;;;4.60;;
20114;SDS011;10218;42.874;25.320;2023-06-10T02:11:14;7.23;;;4.47;;
20114;SDS011;10218;42.874;25.320;2023-06-10T02:13:42;7.50;;;4.80;;
20114;SDS011;10218;42.874;25.320;2023-06-10T02:16:09;8.90;;;5.13;;
20114;SDS011;10218;42.874;25.320;2023-06-10T02:18:40;9.07;;;4.83;;
20114;SDS011;10218;42.874;25.320;2023-06-10T02:21:09;7.67;;;5.00;;
20114;SDS011;10218;42.874;25.320;2023-06-10T02:23:37;10.43;;;4.67;;
20114;SDS011;10218;42.874;25.320;2023-06-10T02:26:04;8.90;;;5.00;;
20114;SDS011;10218;42.874;25.320;2023-06-10T02:28:31;10.47;;;5.17;;
20114;SDS011;10218;42.874;25.320;2023-06-10T02:30:58;8.33;;;5.23;;
20114;SDS011;10218;42.874;25.320;2023-06-10T02:33:26;11.10;;;4.80;;
20114;SDS011;10218;42.874;25.320;2023-06-10T02:35:54;7.83;;;5.07;;
20114;SDS011;10218;42.874;25.320;2023-06-10T02:38:22;7.77;;;5.17;;
20114;SDS011;10218;42.874;25.320;2023-06-10T02:40:49;8.50;;;4.93;;
20114;SDS011;10218;42.874;25.320;2023-06-10T02:43:17;8.23;;;5.00;;
20114;SDS011;10218;42.874;25.320;2023-06-10T02:45:45;8.23;;;4.83;;
20114;SDS011;10218;42.874;25.320;2023-06-10T02:48:13;7.93;;;5.07;;
20114;SDS011;10218;42.874;25.320;2023-06-10T02:50:40;7.57;;;5.00;;
20114;SDS011;10218;42.874;25.320;2023-06-10T02:53:08;12.63;;;5.00;;
20114;SDS011;10218;42.874;25.320;2023-06-10T02:55:36;8.53;;;4.77;;
20114;SDS011;10218;42.874;25.320;2023-06-10T02:58:04;6.83;;;4.93;;
20114;SDS011;10218;42.874;25.320;2023-06-10T03:00:32;11.50;;;4.50;;
20114;SDS011;10218;42.874;25.320;2023-06-10T03:03:00;7.97;;;5.10;;
20114;SDS011;10218;42.874;25.320;2023-06-10T03:05:30;8.33;;;5.10;;
20114;SDS011;10218;42.874;25.320;2023-06-10T03:07:58;7.30;;;4.87;;
20114;SDS011;10218;42.874;25.320;2023-06-10T03:10:25;8.37;;;4.97;;
20114;SDS011;10218;42.874;25.320;2023-06-10T03:12:54;7.10;;;4.63;;
20114;SDS011;10218;42.874;25.320;2023-06-10T03:15:22;9.97;;;4.77;;
20114;SDS011;10218;42.874;25.320;2023-06-10T03:17:51;7.53;;;4.53;;
20114;SDS011;10218;42.874;25.320;2023-06-10T03:20:18;6.60;;;4.60;;
20114;SDS011;10218;42.874;25.320;2023-06-10T03:22:45;10.47;;;4.80;;
20114;SDS011;10218;42.874;25.320;2023-06-10T03:25:12;9.53;;;4.87;;
20114;SDS011;10218;42.874;25.320;2023-06-10T03:27:43;7.70;;;4.73;;
20114;SDS011;10218;42.874;25.320;2023-06-10T03:30:11;7.60;;;4.90;;
20114;SDS011;10218;42.874;25.320;2023-06-10T03:32:40;8.73;;;5.17;;
20114;SDS011;10218;42.874;25.320;2023-06-10T03:35:08;8.17;;;5.17;;
20114;SDS011;10218;42.874;25.320;2023-06-10T03:37:35;8.00;;;4.90;;
20114;SDS011;10218;42.874;25.320;2023-06-10T03:40:03;9.60;;;5.10;;
20114;SDS011;10218;42.874;25.320;2023-06-10T03:42:31;7.17;;;5.00;;
20114;SDS011;10218;42.874;25.320;2023-06-10T03:44:58;7.73;;;5.60;;
20114;SDS011;10218;42.874;25.320;2023-06-10T03:47:32;8.93;;;4.73;;
20114;SDS011;10218;42.874;25.320;2023-06-10T03:50:02;7.00;;;4.80;;
20114;SDS011;10218;42.874;25.320;2023-06-10T03:52:30;9.53;;;5.20;;
20114;SDS011;10218;42.874;25.320;2023-06-10T03:54:58;10.90;;;5.00;;
20114;SDS011;10218;42.874;25.320;2023-06-10T03:57:25;9.97;;;5.43;;
20114;SDS011;10218;42.874;25.320;2023-06-10T03:59:53;8.27;;;4.80;;
20114;SDS011;10218;42.874;25.320;2023-06-10T04:02:20;7.10;;;4.93;;
20114;SDS011;10218;42.874;25.320;2023-06-10T04:04:48;13.00;;;5.60;;
20114;SDS011;10218;42.874;25.320;2023-06-10T04:07:15;12.07;;;5.00;;
20114;SDS011;10218;42.874;25.320;2023-06-10T04:09:42;11.73;;;4.73;;
20114;SDS011;10218;42.874;25.320;2023-06-10T04:12:10;9.67;;;5.07;;
20114;SDS011;10218;42.874;25.320;2023-06-10T04:14:37;8.37;;;5.00;;
20114;SDS011;10218;42.874;25.320;2023-06-10T04:17:05;13.73;;;5.27;;
20114;SDS011;10218;42.874;25.320;2023-06-10T04:19:36;6.97;;;5.13;;
20114;SDS011;10218;42.874;25.320;2023-06-10T04:22:03;6.60;;;4.83;;
20114;SDS011;10218;42.874;25.320;2023-06-10T04:24:31;8.13;;;5.10;;
20114;SDS011;10218;42.874;25.320;2023-06-10T04:26:59;11.13;;;5.03;;
20114;SDS011;10218;42.874;25.320;2023-06-10T04:29:27;8.10;;;5.33;;
20114;SDS011;10218;42.874;25.320;2023-06-10T04:31:54;7.80;;;4.73;;
20114;SDS011;10218;42.874;25.320;2023-06-10T04:34:22;11.57;;;4.63;;
20114;SDS011;10218;42.874;25.320;2023-06-10T04:36:50;7.43;;;4.77;;
20114;SDS011;10218;42.874;25.320;2023-06-10T04:39:17;9.57;;;4.80;;
20114;SDS011;10218;42.874;25.320;2023-06-10T04:41:45;13.10;;;5.73;;
20114;SDS011;10218;42.874;25.320;2023-06-10T04:44:12;9.50;;;5.30;;
20114;SDS011;10218;42.874;25.320;2023-06-10T04:46:40;13.17;;;5.20;;
20114;SDS011;10218;42.874;25.320;2023-06-10T04:49:08;8.80;;;4.70;;
20114;SDS011;10218;42.874;25.320;2023-06-10T04:51:35;8.27;;;5.23;;
20114;SDS011;10218;42.874;25.320;2023-06-10T04:54:02;13.10;;;5.43;;
20114;SDS011;10218;42.874;25.320;2023-06-10T04:56:30;6.67;;;5.03;;
20114;SDS011;10218;42.874;25.320;2023-06-10T04:58:58;9.13;;;5.63;;
20114;SDS011;10218;42.874;25.320;2023-06-10T05:01:25;6.73;;;4.90;;
20114;SDS011;10218;42.874;25.320;2023-06-10T05:03:54;8.30;;;4.87;;
20114;SDS011;10218;42.874;25.320;2023-06-10T05:06:21;10.07;;;6.13;;
20114;SDS011;10218;42.874;25.320;2023-06-10T05:08:48;10.17;;;5.17;;
20114;SDS011;10218;42.874;25.320;2023-06-10T05:11:15;7.87;;;4.80;;
20114;SDS011;10218;42.874;25.320;2023-06-10T05:13:42;10.00;;;4.97;;
20114;SDS011;10218;42.874;25.320;2023-06-10T05:16:10;11.90;;;5.20;;
20114;SDS011;10218;42.874;25.320;2023-06-10T05:18:38;7.47;;;4.70;;
20114;SDS011;10218;42.874;25.320;2023-06-10T05:21:05;10.20;;;5.17;;
20114;SDS011;10218;42.874;25.320;2023-06-10T05:23:32;13.47;;;5.40;;
20114;SDS011;10218;42.874;25.320;2023-06-10T05:26:00;15.33;;;5.83;;
20114;SDS011;10218;42.874;25.320;2023-06-10T05:28:27;9.33;;;5.60;;
20114;SDS011;10218;42.874;25.320;2023-06-10T05:30:54;9.60;;;5.90;;
20114;SDS011;10218;42.874;25.320;2023-06-10T05:33:21;7.93;;;5.50;;
20114;SDS011;10218;42.874;25.320;2023-06-10T05:35:48;10.90;;;6.03;;
20114;SDS011;10218;42.874;25.320;2023-06-10T05:38:15;13.50;;;5.60;;
20114;SDS011;10218;42.874;25.320;2023-06-10T05:40:43;8.93;;;5.53;;
20114;SDS011;10218;42.874;25.320;2023-06-10T05:43:10;13.93;;;6.00;;
20114;SDS011;10218;42.874;25.320;2023-06-10T05:45:37;11.00;;;5.67;;
20114;SDS011;10218;42.874;25.320;2023-06-10T05:48:07;8.27;;;5.33;;
20114;SDS011;10218;42.874;25.320;2023-06-10T05:50:34;7.60;;;5.07;;
20114;SDS011;10218;42.874;25.320;2023-06-10T05:53:05;8.63;;;4.93;;
20114;SDS011;10218;42.874;25.320;2023-06-10T05:55:33;6.83;;;5.03;;
20114;SDS011;10218;42.874;25.320;2023-06-10T05:58:01;10.17;;;4.90;;
20114;SDS011;10218;42.874;25.320;2023-06-10T06:00:28;8.00;;;5.00;;
20114;SDS011;10218;42.874;25.320;2023-06-10T06:02:55;7.00;;;4.73;;
20114;SDS011;10218;42.874;25.320;2023-06-10T06:05:24;7.00;;;4.90;;
20114;SDS011;10218;42.874;25.320;2023-06-10T06:07:51;8.90;;;4.93;;
20114;SDS011;10218;42.874;25.320;2023-06-10T06:10:19;9.80;;;4.67;;
20114;SDS011;10218;42.874;25.320;2023-06-10T06:12:46;8.73;;;5.23;;
20114;SDS011;10218;42.874;25.320;2023-06-10T06:15:13;11.57;;;5.47;;
20114;SDS011;10218;42.874;25.320;2023-06-10T06:17:40;9.27;;;4.93;;
20114;SDS011;10218;42.874;25.320;2023-06-10T06:20:07;6.23;;;4.80;;
20114;SDS011;10218;42.874;25.320;2023-06-10T06:22:35;10.70;;;5.40;;
20114;SDS011;10218;42.874;25.320;2023-06-10T06:25:02;6.80;;;4.77;;
20114;SDS011;10218;42.874;25.320;2023-06-10T06:27:30;7.83;;;5.13;;
20114;SDS011;10218;42.874;25.320;2023-06-10T06:29:58;7.20;;;5.00;;
20114;SDS011;10218;42.874;25.320;2023-06-10T06:32:25;7.90;;;5.10;;
20114;SDS011;10218;42.874;25.320;2023-06-10T06:34:54;10.90;;;5.07;;
20114;SDS011;10218;42.874;25.320;2023-06-10T06:37:21;10.40;;;5.10;;
20114;SDS011;10218;42.874;25.320;2023-06-10T06:39:52;9.50;;;5.40;;
20114;SDS011;10218;42.874;25.320;2023-06-10T06:42:20;7.00;;;4.67;;
20114;SDS011;10218;42.874;25.320;2023-06-10T06:44:49;8.70;;;5.43;;
20114;SDS011;10218;42.874;25.320;2023-06-10T06:47:16;8.23;;;4.67;;
20114;SDS011;10218;42.874;25.320;2023-06-10T06:49:46;10.27;;;5.17;;
20114;SDS011;10218;42.874;25.320;2023-06-10T06:52:17;6.43;;;4.83;;
20114;SDS011;10218;42.874;25.320;2023-06-10T06:54:44;9.10;;;5.30;;
20114;SDS011;10218;42.874;25.320;2023-06-10T06:57:11;9.33;;;5.57;;
20114;SDS011;10218;42.874;25.320;2023-06-10T06:59:38;6.47;;;4.83;;
20114;SDS011;10218;42.874;25.320;2023-06-10T07:02:06;10.97;;;4.80;;
20114;SDS011;10218;42.874;25.320;2023-06-10T07:04:33;6.53;;;4.43;;
20114;SDS011;10218;42.874;25.320;2023-06-10T07:07:00;9.10;;;5.20;;
20114;SDS011;10218;42.874;25.320;2023-06-10T07:09:28;9.50;;;5.10;;
20114;SDS011;10218;42.874;25.320;2023-06-10T07:11:55;11.97;;;7.67;;
20114;SDS011;10218;42.874;25.320;2023-06-10T07:14:22;8.87;;;5.40;;
20114;SDS011;10218;42.874;25.320;2023-06-10T07:16:49;8.90;;;5.87;;
20114;SDS011;10218;42.874;25.320;2023-06-10T07:19:16;9.60;;;5.70;;
20114;SDS011;10218;42.874;25.320;2023-06-10T07:21:43;12.40;;;5.30;;
20114;SDS011;10218;42.874;25.320;2023-06-10T07:24:11;7.40;;;5.03;;
20114;SDS011;10218;42.874;25.320;2023-06-10T07:26:38;10.70;;;5.20;;
20114;SDS011;10218;42.874;25.320;2023-06-10T07:29:05;10.20;;;6.00;;
20114;SDS011;10218;42.874;25.320;2023-06-10T07:31:32;8.70;;;5.80;;
20114;SDS011;10218;42.874;25.320;2023-06-10T07:33:59;9.43;;;5.33;;
20114;SDS011;10218;42.874;25.320;2023-06-10T07:36:27;7.40;;;4.90;;
20114;SDS011;10218;42.874;25.320;2023-06-10T07:38:55;9.87;;;5.30;;
20114;SDS011;10218;42.874;25.320;2023-06-10T07:41:22;8.57;;;5.00;;
20114;SDS011;10218;42.874;25.320;2023-06-10T07:43:52;10.40;;;5.70;;
20114;SDS011;10218;42.874;25.320;2023-06-10T07:46:21;9.97;;;5.20;;
20114;SDS011;10218;42.874;25.320;2023-06-10T07:48:49;7.17;;;5.07;;
20114;SDS011;10218;42.874;25.320;2023-06-10T07:51:16;7.97;;;5.47;;
20114;SDS011;10218;42.874;25.320;2023-06-10T07:53:44;9.17;;;5.93;;
20114;SDS011;10218;42.874;25.320;2023-06-10T07:56:11;9.43;;;5.73;;
20114;SDS011;10218;42.874;25.320;2023-06-10T07:58:38;25.03;;;11.10;;
20114;SDS011;10218;42.874;25.320;2023-06-10T08:01:05;10.77;;;6.00;;
20114;SDS011;10218;42.874;25.320;2023-06-10T08:03:33;10.13;;;5.80;;
20114;SDS011;10218;42.874;25.320;2023-06-10T08:06:00;10.47;;;6.87;;
20114;SDS011;10218;42.874;25.320;2023-06-10T08:08:27;15.57;;;6.20;;
20114;SDS011;10218;42.874;25.320;2023-06-10T08:10:55;9.10;;;5.80;;
20114;SDS011;10218;42.874;25.320;2023-06-10T08:13:22;8.87;;;5.20;;
20114;SDS011;10218;42.874;25.320;2023-06-10T08:15:49;7.10;;;5.10;;
20114;SDS011;10218;42.874;25.320;2023-06-10T08:18:17;7.83;;;4.70;;
20114;SDS011;10218;42.874;25.320;2023-06-10T08:20:44;7.87;;;5.10;;
20114;SDS011;10218;42.874;25.320;2023-06-10T08:23:11;7.63;;;5.20;;
20114;SDS011;10218;42.874;25.320;2023-06-10T08:25:39;8.60;;;5.50;;
20114;SDS011;10218;42.874;25.320;2023-06-10T08:28:06;8.87;;;5.00;;
20114;SDS011;10218;42.874;25.320;2023-06-10T08:30:33;10.33;;;6.33;;
20114;SDS011;10218;42.874;25.320;2023-06-10T08:33:00;9.87;;;5.30;;
20114;SDS011;10218;42.874;25.320;2023-06-10T08:35:28;7.03;;;5.13;;
20114;SDS011;10218;42.874;25.320;2023-06-10T08:37:55;10.43;;;4.90;;
20114;SDS011;10218;42.874;25.320;2023-06-10T08:40:22;9.13;;;5.23;;
20114;SDS011;10218;42.874;25.320;2023-06-10T08:42:53;11.57;;;5.50;;
20114;SDS011;10218;42.874;25.320;2023-06-10T08:45:43;8.57;;;5.17;;
20114;SDS011;10218;42.874;25.320;2023-06-10T08:48:13;8.20;;;5.10;;
20114;SDS011;10218;42.874;25.320;2023-06-10T08:50:43;9.40;;;5.00;;
20114;SDS011;10218;42.874;25.320;2023-06-10T08:53:12;8.03;;;5.23;;
20114;SDS011;10218;42.874;25.320;2023-06-10T08:55:46;8.33;;;4.87;;
20114;SDS011;10218;42.874;25.320;2023-06-10T08:58:18;7.20;;;4.47;;
20114;SDS011;10218;42.874;25.320;2023-06-10T09:00:47;7.27;;;4.37;;
20114;SDS011;10218;42.874;25.320;2023-06-10T09:03:14;8.07;;;5.10;;
20114;SDS011;10218;42.874;25.320;2023-06-10T09:05:41;6.73;;;4.80;;
20114;SDS011;10218;42.874;25.320;2023-06-10T09:08:09;5.90;;;4.30;;
20114;SDS011;10218;42.874;25.320;2023-06-10T09:10:37;6.70;;;4.50;;
20114;SDS011;10218;42.874;25.320;2023-06-10T09:13:05;6.57;;;4.63;;
20114;SDS011;10218;42.874;25.320;2023-06-10T09:15:33;6.07;;;4.30;;
20114;SDS011;10218;42.874;25.320;2023-06-10T09:18:00;5.13;;;4.30;;
20114;SDS011;10218;42.874;25.320;2023-06-10T09:20:27;7.90;;;4.43;;
20114;SDS011;10218;42.874;25.320;2023-06-10T09:22:54;9.83;;;6.23;;
20114;SDS011;10218;42.874;25.320;2023-06-10T09:25:28;6.17;;;4.40;;
20114;SDS011;10218;42.874;25.320;2023-06-10T09:28:03;10.67;;;4.60;;
20114;SDS011;10218;42.874;25.320;2023-06-10T09:30:31;8.40;;;4.80;;
20114;SDS011;10218;42.874;25.320;2023-06-10T09:33:00;6.50;;;4.40;;
20114;SDS011;10218;42.874;25.320;2023-06-10T09:35:30;7.20;;;5.73;;
20114;SDS011;10218;42.874;25.320;2023-06-10T09:37:58;5.87;;;3.93;;
20114;SDS011;10218;42.874;25.320;2023-06-10T09:40:26;6.47;;;4.57;;
20114;SDS011;10218;42.874;25.320;2023-06-10T09:42:55;7.43;;;4.70;;
20114;SDS011;10218;42.874;25.320;2023-06-10T09:45:33;6.43;;;4.40;;
20114;SDS011;10218;42.874;25.320;2023-06-10T09:48:47;8.47;;;4.30;;
20114;SDS011;10218;42.874;25.320;2023-06-10T09:51:15;5.37;;;4.00;;
20114;SDS011;10218;42.874;25.320;2023-06-10T09:53:49;6.63;;;4.40;;
20114;SDS011;10218;42.874;25.320;2023-06-10T09:56:18;7.90;;;4.13;;
20114;SDS011;10218;42.874;25.320;2023-06-10T09:58:46;6.17;;;3.97;;
20114;SDS011;10218;42.874;25.320;2023-06-10T10:01:13;9.10;;;4.10;;
20114;SDS011;10218;42.874;25.320;2023-06-10T10:03:49;5.17;;;3.70;;
20114;SDS011;10218;42.874;25.320;2023-06-10T10:06:17;5.80;;;4.10;;
20114;SDS011;10218;42.874;25.320;2023-06-10T10:08:47;7.50;;;4.20;;
20114;SDS011;10218;42.874;25.320;2023-06-10T10:11:18;6.50;;;3.57;;
20114;SDS011;10218;42.874;25.320;2023-06-10T10:13:49;5.30;;;3.97;;
20114;SDS011;10218;42.874;25.320;2023-06-10T10:16:17;16.47;;;6.93;;
20114;SDS011;10218;42.874;25.320;2023-06-10T10:18:59;9.33;;;6.13;;
20114;SDS011;10218;42.874;25.320;2023-06-10T10:21:32;6.03;;;4.17;;
20114;SDS011;10218;42.874;25.320;2023-06-10T10:24:26;6.40;;;4.10;;
20114;SDS011;10218;42.874;25.320;2023-06-10T10:26:58;5.83;;;3.80;;
20114;SDS011;10218;42.874;25.320;2023-06-10T10:32:01;9.23;;;3.73;;
20114;SDS011;10218;42.874;25.320;2023-06-10T10:34:30;8.93;;;4.03;;
20114;SDS011;10218;42.874;25.320;2023-06-10T10:37:07;7.90;;;3.87;;
20114;SDS011;10218;42.874;25.320;2023-06-10T10:39:34;6.37;;;4.27;;
20114;SDS011;10218;42.874;25.320;2023-06-10T10:42:03;8.60;;;4.17;;
20114;SDS011;10218;42.874;25.320;2023-06-10T10:44:32;10.77;;;4.13;;
20114;SDS011;10218;42.874;25.320;2023-06-10T10:47:02;5.87;;;4.23;;
20114;SDS011;10218;42.874;25.320;2023-06-10T10:49:30;8.13;;;4.10;;
20114;SDS011;10218;42.874;25.320;2023-06-10T10:52:02;7.37;;;4.33;;
20114;SDS011;10218;42.874;25.320;2023-06-10T10:54:32;8.73;;;4.43;;
20114;SDS011;10218;42.874;25.320;2023-06-10T10:57:17;5.83;;;4.30;;
20114;SDS011;10218;42.874;25.320;2023-06-10T11:02:32;5.65;;;3.78;;
20114;SDS011;10218;42.874;25.320;2023-06-10T11:04:59;5.35;;;4.50;;
20114;SDS011;10218;42.874;25.320;2023-06-10T11:07:30;3.58;;;3.25;;
20114;SDS011;10218;42.874;25.320;2023-06-10T11:10:03;5.57;;;4.70;;
20114;SDS011;10218;42.874;25.320;2023-06-10T11:12:42;5.93;;;3.70;;
20114;SDS011;10218;42.874;25.320;2023-06-10T11:15:20;7.60;;;3.83;;
20114;SDS011;10218;42.874;25.320;2023-06-10T11:23:31;7.70;;;3.97;;
20114;SDS011;10218;42.874;25.320;2023-06-10T11:29:04;8.30;;;4.10;;
20114;SDS011;10218;42.874;25.320;2023-06-10T11:31:38;10.40;;;4.07;;
20114;SDS011;10218;42.874;25.320;2023-06-10T11:34:07;7.82;;;3.75;;
20114;SDS011;10218;42.874;25.320;2023-06-10T11:36:38;6.47;;;4.43;;
20114;SDS011;10218;42.874;25.320;2023-06-10T11:39:09;4.93;;;4.10;;
20114;SDS011;10218;42.874;25.320;2023-06-10T11:41:37;6.22;;;3.62;;
20114;SDS011;10218;42.874;25.320;2023-06-10T11:44:09;4.53;;;3.97;;
20114;SDS011;10218;42.874;25.320;2023-06-10T11:46:38;6.83;;;4.30;;
20114;SDS011;10218;42.874;25.320;2023-06-10T11:49:06;6.67;;;4.10;;
20114;SDS011;10218;42.874;25.320;2023-06-10T11:51:37;7.97;;;4.43;;
20114;SDS011;10218;42.874;25.320;2023-06-10T11:54:07;13.73;;;4.20;;
20114;SDS011;10218;42.874;25.320;2023-06-10T11:56:35;5.00;;;4.20;;
20114;SDS011;10218;42.874;25.320;2023-06-10T11:59:03;8.30;;;4.43;;
20114;SDS011;10218;42.874;25.320;2023-06-10T12:01:34;10.00;;;4.40;;
20114;SDS011;10218;42.874;25.320;2023-06-10T12:06:40;7.80;;;5.10;;
20114;SDS011;10218;42.874;25.320;2023-06-10T12:09:18;7.33;;;4.43;;
20114;SDS011;10218;42.874;25.320;2023-06-10T12:11:50;7.70;;;4.77;;
20114;SDS011;10218;42.874;25.320;2023-06-10T12:20:04;7.57;;;5.00;;
20114;SDS011;10218;42.874;25.320;2023-06-10T12:22:35;9.10;;;5.00;;
20114;SDS011;10218;42.874;25.320;2023-06-10T12:25:04;14.30;;;5.37;;
20114;SDS011;10218;42.874;25.320;2023-06-10T12:27:33;6.93;;;5.37;;
20114;SDS011;10218;42.874;25.320;2023-06-10T12:30:02;11.50;;;5.20;;
20114;SDS011;10218;42.874;25.320;2023-06-10T12:32:38;8.33;;;5.30;;
20114;SDS011;10218;42.874;25.320;2023-06-10T12:35:12;6.27;;;5.10;;
20114;SDS011;10218;42.874;25.320;2023-06-10T12:40:34;6.83;;;4.93;;
20114;SDS011;10218;42.874;25.320;2023-06-10T12:43:09;6.57;;;4.90;;
20114;SDS011;10218;42.874;25.320;2023-06-10T12:45:36;7.70;;;5.27;;
20114;SDS011;10218;42.874;25.320;2023-06-10T12:48:10;7.90;;;5.30;;
20114;SDS011;10218;42.874;25.320;2023-06-10T12:50:39;11.00;;;6.47;;
20114;SDS011;10218;42.874;25.320;2023-06-10T12:53:09;13.33;;;6.97;;
20114;SDS011;10218;42.874;25.320;2023-06-10T12:55:38;9.77;;;6.23;;
20114;SDS011;10218;42.874;25.320;2023-06-10T12:58:05;13.50;;;6.77;;
20114;SDS011;10218;42.874;25.320;2023-06-10T13:00:32;12.50;;;5.93;;
20114;SDS011;10218;42.874;25.320;2023-06-10T13:03:02;10.90;;;6.43;;
20114;SDS011;10218;42.874;25.320;2023-06-10T13:05:29;9.13;;;5.97;;
20114;SDS011;10218;42.874;25.320;2023-06-10T13:07:57;16.60;;;6.20;;
20114;SDS011;10218;42.874;25.320;2023-06-10T13:10:25;13.40;;;7.57;;
20114;SDS011;10218;42.874;25.320;2023-06-10T13:12:52;13.07;;;6.30;;
20114;SDS011;10218;42.874;25.320;2023-06-10T13:15:21;12.73;;;8.50;;
20114;SDS011;10218;42.874;25.320;2023-06-10T13:17:49;11.53;;;6.23;;
20114;SDS011;10218;42.874;25.320;2023-06-10T13:20:17;9.40;;;5.90;;
20114;SDS011;10218;42.874;25.320;2023-06-10T13:22:44;11.87;;;6.37;;
20114;SDS011;10218;42.874;25.320;2023-06-10T13:25:12;15.13;;;6.20;;
20114;SDS011;10218;42.874;25.320;2023-06-10T13:27:39;12.13;;;6.50;;
20114;SDS011;10218;42.874;25.320;2023-06-10T13:30:08;14.90;;;6.37;;
20114;SDS011;10218;42.874;25.320;2023-06-10T13:32:36;12.27;;;7.00;;
20114;SDS011;10218;42.874;25.320;2023-06-10T13:35:03;12.57;;;6.70;;
20114;SDS011;10218;42.874;25.320;2023-06-10T13:37:31;12.13;;;6.60;;
20114;SDS011;10218;42.874;25.320;2023-06-10T13:40:00;13.30;;;6.70;;
20114;SDS011;10218;42.874;25.320;2023-06-10T13:42:29;13.13;;;6.30;;
20114;SDS011;10218;42.874;25.320;2023-06-10T13:44:56;13.97;;;6.60;;
20114;SDS011;10218;42.874;25.320;2023-06-10T13:47:23;9.73;;;6.20;;
20114;SDS011;10218;42.874;25.320;2023-06-10T13:49:52;12.70;;;7.00;;
20114;SDS011;10218;42.874;25.320;2023-06-10T13:52:19;7.17;;;5.60;;
20114;SDS011;10218;42.874;25.320;2023-06-10T13:54:46;12.67;;;5.63;;
20114;SDS011;10218;42.874;25.320;2023-06-10T13:57:13;10.73;;;5.13;;
20114;SDS011;10218;42.874;25.320;2023-06-10T13:59:40;10.77;;;5.80;;
20114;SDS011;10218;42.874;25.320;2023-06-10T14:02:07;8.47;;;6.10;;
20114;SDS011;10218;42.874;25.320;2023-06-10T14:04:36;11.90;;;5.90;;
20114;SDS011;10218;42.874;25.320;2023-06-10T14:07:03;10.33;;;5.87;;
20114;SDS011;10218;42.874;25.320;2023-06-10T14:09:30;8.80;;;5.50;;
20114;SDS011;10218;42.874;25.320;2023-06-10T14:11:57;8.57;;;5.97;;
20114;SDS011;10218;42.874;25.320;2023-06-10T14:14:24;9.13;;;5.97;;
20114;SDS011;10218;42.874;25.320;2023-06-10T14:16:52;11.63;;;6.27;;
20114;SDS011;10218;42.874;25.320;2023-06-10T14:19:19;9.10;;;5.97;;
20114;SDS011;10218;42.874;25.320;2023-06-10T14:21:46;8.17;;;6.07;;
20114;SDS011;10218;42.874;25.320;2023-06-10T14:24:13;11.33;;;6.43;;
20114;SDS011;10218;42.874;25.320;2023-06-10T14:26:41;6.73;;;5.60;;
20114;SDS011;10218;42.874;25.320;2023-06-10T14:29:08;9.37;;;5.87;;
20114;SDS011;10218;42.874;25.320;2023-06-10T14:31:35;9.20;;;5.63;;
20114;SDS011;10218;42.874;25.320;2023-06-10T14:34:02;9.07;;;6.70;;
20114;SDS011;10218;42.874;25.320;2023-06-10T14:36:29;9.60;;;5.80;;
20114;SDS011;10218;42.874;25.320;2023-06-10T14:38:56;8.77;;;5.97;;
20114;SDS011;10218;42.874;25.320;2023-06-10T14:41:24;9.97;;;6.33;;
20114;SDS011;10218;42.874;25.320;2023-06-10T14:43:51;8.40;;;6.10;;
20114;SDS011;10218;42.874;25.320;2023-06-10T14:46:19;9.47;;;5.93;;
20114;SDS011;10218;42.874;25.320;2023-06-10T14:48:49;10.43;;;6.23;;
20114;SDS011;10218;42.874;25.320;2023-06-10T14:51:16;10.13;;;6.70;;
20114;SDS011;10218;42.874;25.320;2023-06-10T14:53:43;10.83;;;6.93;;
20114;SDS011;10218;42.874;25.320;2023-06-10T14:56:12;9.70;;;6.90;;
20114;SDS011;10218;42.874;25.320;2023-06-10T14:58:39;9.53;;;6.00;;
20114;SDS011;10218;42.874;25.320;2023-06-10T15:01:06;11.53;;;5.63;;
20114;SDS011;10218;42.874;25.320;2023-06-10T15:03:33;8.50;;;5.40;;
20114;SDS011;10218;42.874;25.320;2023-06-10T15:06:00;9.53;;;5.83;;